Trinidad, CA (95570)

7:12 PM PDT on August 29, 2015 (GMT -0700)
Trinidad Village | | Change Station
CLOSE
Current Station
Personal Weather Station
Location: Trinidad, CA
Elevation: 180 ft
Nearby Weather Stations

Elev 180 ft 41.06 °N, 124.14 °W | Updated 30 seconds ago

Mostly Cloudy
Mostly Cloudy
66.0 °F
Feels Like 66.0 °F
N
0.0
Wind Variable Wind from WSW
Gusts 18.0 mph

Today
High -- | Low -- °F
--% Chance of Precip.
Yesterday
High -- | Low -- °F
Precip. -- in
6:39 AM 7:54 PM
Full, 100% visible
Pressure 29.99 in
Visibility 10.0 miles
Clouds Mostly Cloudy 6500 ft
Dew Point 59 °F
Humidity 78%
Rainfall 0.53 in
Snow Depth Not available.
UV 0 out of 12
Pollen 3.70 out of 12
Air Quality Not available.
Flu Activity Not available.
METAR KACV 300153Z AUTO 00000KT 10SM BKN065 19/14 A2998 RMK AO2 SLP154 T01940144
Pressure 29.99 in
Visibility 10.0 miles
Clouds Mostly Cloudy 6500 ft
Dew Point 59 °F
Humidity 78%
Rainfall 0.53 in
Snow Depth Not available.
UV 0 out of 12
Pollen 3.70 out of 12
Air Quality Not available.
Flu Activity Not available.
METAR KACV 300153Z AUTO 00000KT 10SM BKN065 19/14 A2998 RMK AO2 SLP154 T01940144

10-Day Weather Forecast

×

Almanac

Astronomy

Aug. 29, 2015 Rise Set
Actual Time
Civil Twilight
Nautical Twilight
Astronomical Twilight
Moon
Length of Visible Light
Length of Day
Tomorrow will be .
, % of the Moon is Illuminated

Today's Extremes

State Highs State Lows

Community

WunderPhotos

Upload Photos

1,850,849 photos uploaded!

WunderBlogs® & News

Nearby

Air Quality

  Air Quality AQ Index Pollutant
Not available.

Snow Depth

Station Depth Elevation

Earthquake Activity

City Distance Mag. Time & Date
Minimum magnitude displayed is 2.5.

Coastal Water Temperatures

Place Temperature

Stations

Nearby Weather Stations

Station Location Temp. Windchill Dew Point Humidity Wind Precip. Elev Updated Type